sensor_id;sensor_type;location;lat;lon;timestamp;P1;P4;P2;P0;N10;N4;N25;N1;N05;TS
66834;SPS30;53743;51.100;5.874;2023-09-19T00:00:14;2.92;2.74;2.39;1.86;14.87;14.85;14.76;14.30;11.93;0.67
66834;SPS30;53743;51.100;5.874;2023-09-19T00:01:19;2.79;2.61;2.26;1.75;13.98;13.96;13.88;13.42;11.16;0.67
66834;SPS30;53743;51.100;5.874;2023-09-19T00:02:20;2.49;2.33;2.02;1.56;12.45;12.44;12.36;11.96;9.94;0.67
66834;SPS30;53743;51.100;5.874;2023-09-19T00:03:23;2.92;2.73;2.35;1.78;14.27;14.25;14.16;13.66;11.29;0.67
66834;SPS30;53743;51.100;5.874;2023-09-19T00:04:25;2.99;2.79;2.38;1.79;14.34;14.32;14.23;13.70;11.28;0.68
66834;SPS30;53743;51.100;5.874;2023-09-19T00:05:29;2.87;2.67;2.27;1.70;13.63;13.62;13.52;13.01;10.70;0.69
66834;SPS30;53743;51.100;5.874;2023-09-19T00:06:35;2.28;2.13;1.82;1.38;11.02;11.00;10.93;10.53;8.68;0.68
66834;SPS30;53743;51.100;5.874;2023-09-19T00:07:38;3.01;2.82;2.45;1.90;15.19;15.17;15.08;14.59;12.15;0.66
66834;SPS30;53743;51.100;5.874;2023-09-19T00:08:40;2.19;2.06;1.79;1.40;11.17;11.15;11.09;10.74;8.96;0.66
66834;SPS30;53743;51.100;5.874;2023-09-19T00:09:44;2.48;2.32;2.02;1.57;12.59;12.58;12.50;12.11;10.10;0.66
66834;SPS30;53743;51.100;5.874;2023-09-19T00:10:45;3.11;2.90;2.50;1.91;15.32;15.30;15.20;14.68;12.16;0.67
66834;SPS30;53743;51.100;5.874;2023-09-19T00:11:49;2.80;2.61;2.24;1.70;13.58;13.56;13.47;12.99;10.73;0.67
66834;SPS30;53743;51.100;5.874;2023-09-19T00:12:51;2.36;2.20;1.89;1.44;11.53;11.52;11.44;11.04;9.13;0.66
66834;SPS30;53743;51.100;5.874;2023-09-19T00:13:57;2.86;2.66;2.28;1.72;13.74;13.72;13.63;13.13;10.82;0.66
66834;SPS30;53743;51.100;5.874;2023-09-19T00:14:59;2.96;2.76;2.37;1.79;14.36;14.34;14.25;13.74;11.35;0.65
66834;SPS30;53743;51.100;5.874;2023-09-19T00:16:08;3.07;2.87;2.50;1.93;15.43;15.41;15.32;14.82;12.33;0.65
66834;SPS30;53743;51.100;5.874;2023-09-19T00:17:11;2.87;2.69;2.35;1.83;14.63;14.61;14.53;14.08;11.75;0.64
66834;SPS30;53743;51.100;5.874;2023-09-19T00:18:12;3.00;2.81;2.44;1.88;15.08;15.06;14.98;14.49;12.06;0.66
66834;SPS30;53743;51.100;5.874;2023-09-19T00:19:15;2.50;2.34;2.03;1.57;12.56;12.54;12.47;12.06;10.04;0.66
66834;SPS30;53743;51.100;5.874;2023-09-19T00:20:17;2.64;2.47;2.14;1.66;13.27;13.25;13.17;12.75;10.61;0.66
66834;SPS30;53743;51.100;5.874;2023-09-19T00:21:19;3.13;2.92;2.52;1.93;15.47;15.45;15.35;14.83;12.29;0.66
66834;SPS30;53743;51.100;5.874;2023-09-19T00:22:22;3.00;2.80;2.41;1.83;14.65;14.63;14.54;14.02;11.59;0.66
66834;SPS30;53743;51.100;5.874;2023-09-19T00:23:23;3.36;3.13;2.69;2.03;16.29;16.26;16.16;15.57;12.86;0.66
66834;SPS30;53743;51.100;5.874;2023-09-19T00:24:25;2.69;2.51;2.14;1.61;12.90;12.88;12.79;12.32;10.14;0.66
66834;SPS30;53743;51.100;5.874;2023-09-19T00:25:28;2.80;2.60;2.22;1.67;13.35;13.33;13.24;12.74;10.48;0.67
66834;SPS30;53743;51.100;5.874;2023-09-19T00:26:31;2.61;2.42;2.06;1.54;12.34;12.33;12.24;11.77;9.67;0.67
66834;SPS30;53743;51.100;5.874;2023-09-19T00:27:32;2.35;2.19;1.86;1.38;11.09;11.07;11.00;10.57;8.67;0.68
66834;SPS30;53743;51.100;5.874;2023-09-19T00:28:34;3.28;3.05;2.59;1.93;15.44;15.42;15.31;14.71;12.07;0.68
66834;SPS30;53743;51.100;5.874;2023-09-19T00:29:37;3.25;3.01;2.54;1.87;14.96;14.94;14.83;14.22;11.61;0.69
66834;SPS30;53743;51.100;5.874;2023-09-19T00:30:41;2.63;2.44;2.07;1.54;12.30;12.28;12.19;11.71;9.59;0.69
66834;SPS30;53743;51.100;5.874;2023-09-19T00:31:44;3.03;2.82;2.40;1.80;14.38;14.36;14.26;13.71;11.26;0.68
66834;SPS30;53743;51.100;5.874;2023-09-19T00:32:45;2.73;2.54;2.18;1.65;13.18;13.16;13.08;12.60;10.40;0.68
66834;SPS30;53743;51.100;5.874;2023-09-19T00:33:48;2.47;2.31;1.98;1.50;11.99;11.98;11.90;11.47;9.47;0.68
66834;SPS30;53743;51.100;5.874;2023-09-19T00:34:50;3.00;2.79;2.38;1.79;14.32;14.30;14.20;13.67;11.25;0.69
66834;SPS30;53743;51.100;5.874;2023-09-19T00:35:53;3.44;3.20;2.75;2.09;16.71;16.69;16.58;15.99;13.21;0.68
66834;SPS30;53743;51.100;5.874;2023-09-19T00:36:55;2.83;2.66;2.32;1.81;14.51;14.50;14.42;13.98;11.67;0.65
66834;SPS30;53743;51.100;5.874;2023-09-19T00:37:57;2.14;2.02;1.78;1.42;11.37;11.35;11.30;10.99;9.24;0.64
66834;SPS30;53743;51.100;5.874;2023-09-19T00:38:58;2.63;2.48;2.18;1.72;13.79;13.77;13.70;13.31;11.16;0.65
66834;SPS30;53743;51.100;5.874;2023-09-19T00:40:01;3.13;2.94;2.56;1.99;15.96;15.94;15.85;15.36;12.81;0.66
66834;SPS30;53743;51.100;5.874;2023-09-19T00:41:05;2.74;2.57;2.24;1.73;13.87;13.86;13.78;13.34;11.11;0.67
66834;SPS30;53743;51.100;5.874;2023-09-19T00:42:07;2.98;2.79;2.41;1.86;14.89;14.87;14.78;14.29;11.88;0.67
66834;SPS30;53743;51.100;5.874;2023-09-19T00:43:08;2.37;2.21;1.90;1.45;11.62;11.61;11.54;11.13;9.22;0.67
66834;SPS30;53743;51.100;5.874;2023-09-19T00:44:11;2.58;2.40;2.06;1.56;12.50;12.48;12.40;11.96;9.87;0.68
66834;SPS30;53743;51.100;5.874;2023-09-19T00:45:14;2.60;2.43;2.10;1.60;12.82;12.81;12.73;12.29;10.18;0.66
66834;SPS30;53743;51.100;5.874;2023-09-19T00:46:18;2.17;2.03;1.75;1.34;10.74;10.73;10.66;10.30;8.54;0.65
66834;SPS30;53743;51.100;5.874;2023-09-19T00:47:21;2.90;2.71;2.34;1.79;14.36;14.35;14.26;13.77;11.42;0.65
66834;SPS30;53743;51.100;5.874;2023-09-19T00:48:22;2.68;2.50;2.15;1.64;13.10;13.08;13.00;12.54;10.37;0.66
66834;SPS30;53743;51.100;5.874;2023-09-19T00:49:28;2.19;2.05;1.78;1.37;10.96;10.94;10.88;10.52;8.74;0.66
66834;SPS30;53743;51.100;5.874;2023-09-19T00:50:29;2.50;2.34;2.03;1.57;12.59;12.58;12.51;12.10;10.07;0.66
66834;SPS30;53743;51.100;5.874;2023-09-19T00:51:32;2.46;2.31;2.00;1.54;12.35;12.33;12.26;11.86;9.86;0.65
66834;SPS30;53743;51.100;5.874;2023-09-19T00:52:37;2.32;2.17;1.88;1.45;11.62;11.61;11.54;11.16;9.28;0.66
66834;SPS30;53743;51.100;5.874;2023-09-19T00:53:40;2.65;2.48;2.14;1.65;13.18;13.17;13.09;12.65;10.50;0.67
66834;SPS30;53743;51.100;5.874;2023-09-19T00:54:46;2.34;2.18;1.88;1.44;11.50;11.48;11.41;11.02;9.12;0.67
66834;SPS30;53743;51.100;5.874;2023-09-19T00:55:49;2.64;2.46;2.11;1.61;12.85;12.84;12.75;12.30;10.17;0.68
66834;SPS30;53743;51.100;5.874;2023-09-19T00:56:52;2.30;2.15;1.86;1.42;11.37;11.35;11.28;10.90;9.03;0.66
66834;SPS30;53743;51.100;5.874;2023-09-19T00:57:55;2.45;2.30;1.99;1.54;12.30;12.28;12.21;11.81;9.82;0.65
66834;SPS30;53743;51.100;5.874;2023-09-19T00:58:57;2.39;2.24;1.95;1.51;12.11;12.10;12.03;11.65;9.71;0.65
66834;SPS30;53743;51.100;5.874;2023-09-19T00:59:59;2.23;2.09;1.82;1.42;11.36;11.34;11.28;10.93;9.12;0.64
66834;SPS30;53743;51.100;5.874;2023-09-19T01:01:07;2.45;2.30;2.01;1.56;12.49;12.47;12.40;12.01;10.02;0.64
66834;SPS30;53743;51.100;5.874;2023-09-19T01:02:11;2.49;2.34;2.06;1.63;13.05;13.03;12.96;12.59;10.56;0.62
66834;SPS30;53743;51.100;5.874;2023-09-19T01:03:14;2.98;2.81;2.49;1.98;15.86;15.84;15.76;15.33;12.90;0.61
66834;SPS30;53743;51.100;5.874;2023-09-19T01:04:16;2.28;2.16;1.92;1.54;12.31;12.30;12.24;11.92;10.05;0.61
66834;SPS30;53743;51.100;5.874;2023-09-19T01:05:18;2.10;1.98;1.74;1.38;11.02;11.01;10.95;10.64;8.93;0.62
66834;SPS30;53743;51.100;5.874;2023-09-19T01:06:21;2.54;2.38;2.08;1.62;12.97;12.95;12.88;12.48;10.42;0.62
66834;SPS30;53743;51.100;5.874;2023-09-19T01:07:22;2.67;2.50;2.16;1.66;13.29;13.28;13.20;12.76;10.59;0.62
66834;SPS30;53743;51.100;5.874;2023-09-19T01:08:24;2.55;2.39;2.08;1.62;12.99;12.97;12.90;12.50;10.43;0.62
66834;SPS30;53743;51.100;5.874;2023-09-19T01:09:29;2.06;1.94;1.70;1.34;10.69;10.67;10.62;10.30;8.63;0.63
66834;SPS30;53743;51.100;5.874;2023-09-19T01:10:31;2.20;2.07;1.81;1.42;11.33;11.32;11.26;10.92;9.13;0.63
66834;SPS30;53743;51.100;5.874;2023-09-19T01:11:35;2.59;2.44;2.13;1.67;13.33;13.31;13.24;12.84;10.72;0.63
66834;SPS30;53743;51.100;5.874;2023-09-19T01:12:46;2.65;2.47;2.13;1.63;13.05;13.03;12.95;12.51;10.36;0.66
66834;SPS30;53743;51.100;5.874;2023-09-19T01:14:01;2.20;2.05;1.78;1.36;10.90;10.89;10.82;10.45;8.67;0.65
66834;SPS30;53743;51.100;5.874;2023-09-19T01:15:28;3.11;2.90;2.49;1.88;15.07;15.05;14.95;14.41;11.90;0.67
66834;SPS30;53743;51.100;5.874;2023-09-19T01:16:50;2.87;2.67;2.29;1.73;13.83;13.82;13.72;13.22;10.90;0.66
66834;SPS30;53743;51.100;5.874;2023-09-19T01:18:07;2.53;2.37;2.05;1.57;12.59;12.58;12.50;12.08;10.03;0.65
66834;SPS30;53743;51.100;5.874;2023-09-19T01:21:19;2.10;1.99;1.78;1.45;11.58;11.57;11.52;11.24;9.52;0.62
66834;SPS30;53743;51.100;5.874;2023-09-19T01:22:32;2.79;2.64;2.36;1.90;15.22;15.21;15.14;14.76;12.47;0.63
66834;SPS30;53743;51.100;5.874;2023-09-19T01:24:07;2.34;2.21;1.95;1.56;12.44;12.43;12.37;12.03;10.12;0.63
66834;SPS30;53743;51.100;5.874;2023-09-19T01:25:44;2.65;2.49;2.20;1.74;13.95;13.94;13.87;13.48;11.32;0.63
66834;SPS30;53743;51.100;5.874;2023-09-19T01:27:24;2.42;2.28;2.00;1.58;12.63;12.62;12.55;12.18;10.21;0.63
66834;SPS30;53743;51.100;5.874;2023-09-19T01:28:58;2.42;2.28;1.99;1.56;12.51;12.49;12.42;12.05;10.08;0.63
66834;SPS30;53743;51.100;5.874;2023-09-19T01:30:32;2.54;2.39;2.09;1.64;13.10;13.08;13.01;12.62;10.55;0.64
66834;SPS30;53743;51.100;5.874;2023-09-19T01:31:44;3.07;2.88;2.50;1.94;15.49;15.47;15.38;14.89;12.40;0.66
66834;SPS30;53743;51.100;5.874;2023-09-19T01:32:49;3.03;2.83;2.43;1.85;14.83;14.82;14.72;14.21;11.76;0.66
66834;SPS30;53743;51.100;5.874;2023-09-19T01:33:53;2.69;2.51;2.16;1.64;13.14;13.13;13.04;12.58;10.41;0.66
66834;SPS30;53743;51.100;5.874;2023-09-19T01:34:59;2.71;2.53;2.18;1.65;13.24;13.22;13.14;12.67;10.48;0.66
66834;SPS30;53743;51.100;5.874;2023-09-19T01:36:05;2.42;2.26;1.94;1.48;11.83;11.81;11.74;11.32;9.36;0.65
66834;SPS30;53743;51.100;5.874;2023-09-19T01:37:09;2.90;2.70;2.32;1.77;14.14;14.12;14.03;13.53;11.19;0.66
66834;SPS30;53743;51.100;5.874;2023-09-19T01:38:11;3.00;2.79;2.37;1.76;14.08;14.06;13.96;13.42;11.00;0.68
66834;SPS30;53743;51.100;5.874;2023-09-19T01:39:12;3.59;3.34;2.86;2.16;17.27;17.25;17.13;16.50;13.60;0.67
66834;SPS30;53743;51.100;5.874;2023-09-19T01:40:16;2.73;2.54;2.19;1.66;13.28;13.26;13.18;12.71;10.50;0.67
66834;SPS30;53743;51.100;5.874;2023-09-19T01:41:26;2.39;2.22;1.90;1.42;11.36;11.34;11.26;10.83;8.90;0.67
66834;SPS30;53743;51.100;5.874;2023-09-19T01:42:48;1.88;1.75;1.51;1.15;9.21;9.19;9.14;8.82;7.30;0.66
66834;SPS30;53743;51.100;5.874;2023-09-19T01:43:59;2.99;2.79;2.42;1.86;14.86;14.84;14.75;14.25;11.83;0.65
66834;SPS30;53743;51.100;5.874;2023-09-19T01:45:11;2.50;2.34;2.03;1.57;12.53;12.51;12.44;12.03;10.01;0.65
66834;SPS30;53743;51.100;5.874;2023-09-19T01:46:29;3.15;2.94;2.54;1.94;15.54;15.52;15.42;14.89;12.34;0.65
66834;SPS30;53743;51.100;5.874;2023-09-19T01:47:37;3.41;3.19;2.75;2.10;16.80;16.78;16.67;16.10;13.33;0.65
66834;SPS30;53743;51.100;5.874;2023-09-19T01:48:54;2.15;2.01;1.75;1.35;10.81;10.80;10.74;10.39;8.65;0.64
66834;SPS30;53743;51.100;5.874;2023-09-19T01:50:13;2.89;2.71;2.34;1.80;14.42;14.40;14.31;13.84;11.49;0.63
66834;SPS30;53743;51.100;5.874;2023-09-19T01:51:32;2.92;2.74;2.39;1.87;14.94;14.92;14.84;14.38;12.01;0.63
66834;SPS30;53743;51.100;5.874;2023-09-19T01:52:47;2.06;1.93;1.68;1.31;10.46;10.44;10.38;10.06;8.38;0.63
66834;SPS30;53743;51.100;5.874;2023-09-19T01:54:08;2.83;2.66;2.34;1.84;14.71;14.70;14.62;14.19;11.89;0.64
66834;SPS30;53743;51.100;5.874;2023-09-19T01:55:14;1.97;1.86;1.64;1.30;10.44;10.43;10.38;10.09;8.48;0.64
66834;SPS30;53743;51.100;5.874;2023-09-19T01:56:22;2.20;2.07;1.83;1.45;11.61;11.60;11.54;11.22;9.43;0.64
66834;SPS30;53743;51.100;5.874;2023-09-19T01:57:40;2.32;2.18;1.92;1.52;12.16;12.14;12.08;11.73;9.84;0.64
66834;SPS30;53743;51.100;5.874;2023-09-19T01:58:56;2.66;2.50;2.21;1.74;13.96;13.94;13.87;13.47;11.30;0.65
66834;SPS30;53743;51.100;5.874;2023-09-19T02:00:10;2.39;2.24;1.94;1.50;12.01;12.00;11.93;11.54;9.60;0.67
66834;SPS30;53743;51.100;5.874;2023-09-19T02:01:19;2.55;2.39;2.06;1.58;12.66;12.64;12.56;12.14;10.07;0.68
66834;SPS30;53743;51.100;5.874;2023-09-19T02:02:28;2.44;2.28;1.96;1.49;11.91;11.89;11.82;11.40;9.43;0.68
66834;SPS30;53743;51.100;5.874;2023-09-19T02:03:30;2.10;1.97;1.70;1.30;10.44;10.43;10.36;10.01;8.31;0.68
66834;SPS30;53743;51.100;5.874;2023-09-19T02:04:36;2.58;2.41;2.09;1.60;12.82;12.81;12.73;12.30;10.21;0.68
66834;SPS30;53743;51.100;5.874;2023-09-19T02:05:37;2.73;2.55;2.19;1.66;13.28;13.26;13.18;12.70;10.50;0.68
66834;SPS30;53743;51.100;5.874;2023-09-19T02:06:40;2.69;2.52;2.19;1.69;13.53;13.52;13.44;13.00;10.82;0.66
66834;SPS30;53743;51.100;5.874;2023-09-19T02:07:42;2.39;2.25;1.97;1.54;12.32;12.30;12.24;11.86;9.92;0.65
66834;SPS30;53743;51.100;5.874;2023-09-19T02:08:45;1.92;1.80;1.57;1.22;9.77;9.76;9.71;9.40;7.84;0.66
66834;SPS30;53743;51.100;5.874;2023-09-19T02:09:47;2.86;2.68;2.32;1.79;14.32;14.30;14.21;13.74;11.42;0.66
66834;SPS30;53743;51.100;5.874;2023-09-19T02:10:49;2.81;2.63;2.26;1.72;13.77;13.75;13.66;13.18;10.90;0.67
66834;SPS30;53743;51.100;5.874;2023-09-19T02:11:51;2.23;2.08;1.77;1.32;10.57;10.55;10.48;10.08;8.28;0.67
66834;SPS30;53743;51.100;5.874;2023-09-19T02:12:52;2.69;2.50;2.13;1.59;12.75;12.74;12.65;12.16;9.99;0.67
66834;SPS30;53743;51.100;5.874;2023-09-19T02:13:54;2.77;2.57;2.16;1.59;12.73;12.71;12.61;12.09;9.86;0.69
66834;SPS30;53743;51.100;5.874;2023-09-19T02:14:56;2.91;2.69;2.27;1.66;13.31;13.29;13.19;12.64;10.30;0.69
66834;SPS30;53743;51.100;5.874;2023-09-19T02:15:58;3.08;2.84;2.37;1.71;13.74;13.71;13.60;13.00;10.53;0.70
66834;SPS30;53743;51.100;5.874;2023-09-19T02:17:00;2.67;2.46;2.05;1.48;11.84;11.82;11.72;11.19;9.05;0.71
66834;SPS30;53743;51.100;5.874;2023-09-19T02:18:05;2.83;2.61;2.19;1.58;12.65;12.63;12.53;11.97;9.70;0.71
66834;SPS30;53743;51.100;5.874;2023-09-19T02:19:07;3.54;3.27;2.74;1.99;15.97;15.94;15.81;15.13;12.28;0.72
66834;SPS30;53743;51.100;5.874;2023-09-19T02:20:10;2.37;2.19;1.85;1.35;10.84;10.82;10.74;10.29;8.38;0.71
66834;SPS30;53743;51.100;5.874;2023-09-19T02:21:15;2.35;2.18;1.85;1.36;10.91;10.89;10.81;10.38;8.48;0.71
66834;SPS30;53743;51.100;5.874;2023-09-19T02:22:17;2.54;2.36;2.00;1.48;11.88;11.86;11.78;11.31;9.26;0.71
66834;SPS30;53743;51.100;5.874;2023-09-19T02:23:18;3.36;3.12;2.64;1.95;15.65;15.63;15.51;14.89;12.18;0.71
66834;SPS30;53743;51.100;5.874;2023-09-19T02:24:20;2.66;2.47;2.11;1.58;12.68;12.66;12.57;12.10;9.96;0.70
66834;SPS30;53743;51.100;5.874;2023-09-19T02:25:21;1.74;1.63;1.41;1.08;8.64;8.63;8.58;8.29;6.88;0.68
66834;SPS30;53743;51.100;5.874;2023-09-19T02:26:22;1.86;1.75;1.52;1.18;9.46;9.45;9.39;9.10;7.59;0.67
66834;SPS30;53743;51.100;5.874;2023-09-19T02:27:25;2.10;1.98;1.73;1.35;10.77;10.76;10.70;10.37;8.66;0.67
66834;SPS30;53743;51.100;5.874;2023-09-19T02:28:26;2.53;2.38;2.08;1.63;13.06;13.04;12.97;12.58;10.52;0.65
66834;SPS30;53743;51.100;5.874;2023-09-19T02:29:30;2.27;2.14;1.89;1.50;12.02;12.01;11.95;11.62;9.76;0.64
66834;SPS30;53743;51.100;5.874;2023-09-19T02:30:32;2.15;2.03;1.78;1.41;11.27;11.26;11.20;10.87;9.12;0.64
66834;SPS30;53743;51.100;5.874;2023-09-19T02:31:33;2.70;2.55;2.25;1.78;14.26;14.24;14.17;13.77;11.57;0.62
66834;SPS30;53743;51.100;5.874;2023-09-19T02:32:35;2.08;1.97;1.76;1.41;11.31;11.30;11.25;10.96;9.26;0.61
66834;SPS30;53743;51.100;5.874;2023-09-19T02:33:40;2.05;1.95;1.74;1.41;11.29;11.28;11.23;10.96;9.28;0.60
66834;SPS30;53743;51.100;5.874;2023-09-19T02:34:42;2.17;2.07;1.85;1.51;12.07;12.06;12.01;11.73;9.94;0.59
66834;SPS30;53743;51.100;5.874;2023-09-19T02:35:44;1.94;1.84;1.65;1.35;10.77;10.76;10.71;10.46;8.86;0.60
66834;SPS30;53743;51.100;5.874;2023-09-19T02:36:47;1.91;1.81;1.61;1.31;10.45;10.44;10.39;10.13;8.57;0.60
66834;SPS30;53743;51.100;5.874;2023-09-19T02:37:48;2.18;2.07;1.85;1.51;12.05;12.03;11.98;11.69;9.90;0.61
66834;SPS30;53743;51.100;5.874;2023-09-19T02:38:50;2.44;2.31;2.07;1.68;13.41;13.40;13.34;13.01;11.01;0.61
66834;SPS30;53743;51.100;5.874;2023-09-19T02:39:51;2.61;2.47;2.21;1.79;14.35;14.33;14.27;13.92;11.78;0.62
66834;SPS30;53743;51.100;5.874;2023-09-19T02:40:53;2.44;2.31;2.06;1.66;13.27;13.25;13.19;12.86;10.86;0.63
66834;SPS30;53743;51.100;5.874;2023-09-19T02:41:55;2.18;2.06;1.82;1.45;11.63;11.62;11.57;11.25;9.47;0.63
66834;SPS30;53743;51.100;5.874;2023-09-19T02:42:57;2.03;1.92;1.70;1.36;10.88;10.87;10.82;10.53;8.87;0.63
66834;SPS30;53743;51.100;5.874;2023-09-19T02:43:59;1.66;1.57;1.41;1.14;9.09;9.09;9.05;8.82;7.46;0.62
66834;SPS30;53743;51.100;5.874;2023-09-19T02:45:03;1.83;1.73;1.55;1.25;9.97;9.96;9.91;9.66;8.16;0.63
66834;SPS30;53743;51.100;5.874;2023-09-19T02:46:06;2.04;1.93;1.71;1.37;10.95;10.94;10.89;10.60;8.93;0.64
66834;SPS30;53743;51.100;5.874;2023-09-19T02:47:08;2.21;2.09;1.86;1.50;12.02;12.01;11.95;11.65;9.84;0.63
66834;SPS30;53743;51.100;5.874;2023-09-19T02:48:09;1.72;1.64;1.46;1.18;9.46;9.45;9.41;9.17;7.76;0.63
66834;SPS30;53743;51.100;5.874;2023-09-19T02:49:13;1.86;1.77;1.59;1.30;10.38;10.37;10.33;10.09;8.56;0.62
66834;SPS30;53743;51.100;5.874;2023-09-19T02:50:15;1.79;1.71;1.54;1.26;10.05;10.04;10.00;9.77;8.30;0.61
66834;SPS30;53743;51.100;5.874;2023-09-19T02:51:17;2.21;2.10;1.89;1.54;12.34;12.33;12.28;11.99;10.17;0.61
66834;SPS30;53743;51.100;5.874;2023-09-19T02:52:20;2.36;2.24;2.02;1.65;13.19;13.17;13.12;12.81;10.87;0.61
66834;SPS30;53743;51.100;5.874;2023-09-19T02:53:21;1.87;1.77;1.57;1.27;10.16;10.15;10.11;9.85;8.32;0.62
66834;SPS30;53743;51.100;5.874;2023-09-19T02:54:24;1.96;1.85;1.64;1.32;10.56;10.55;10.50;10.23;8.63;0.62
66834;SPS30;53743;51.100;5.874;2023-09-19T02:55:26;1.79;1.70;1.52;1.23;9.82;9.82;9.77;9.53;8.06;0.61
66834;SPS30;53743;51.100;5.874;2023-09-19T02:56:29;1.51;1.44;1.30;1.06;8.48;8.48;8.44;8.25;7.00;0.60
66834;SPS30;53743;51.100;5.874;2023-09-19T02:57:31;2.04;1.94;1.75;1.43;11.47;11.46;11.41;11.15;9.48;0.60
66834;SPS30;53743;51.100;5.874;2023-09-19T02:58:34;1.93;1.84;1.65;1.36;10.84;10.83;10.79;10.54;8.95;0.60
66834;SPS30;53743;51.100;5.874;2023-09-19T02:59:36;1.76;1.67;1.51;1.25;9.97;9.96;9.92;9.70;8.26;0.60
66834;SPS30;53743;51.100;5.874;2023-09-19T03:00:38;1.64;1.56;1.41;1.16;9.25;9.24;9.20;9.00;7.65;0.61
66834;SPS30;53743;51.100;5.874;2023-09-19T03:01:39;1.64;1.56;1.41;1.16;9.24;9.23;9.20;8.99;7.64;0.60
66834;SPS30;53743;51.100;5.874;2023-09-19T03:02:44;1.87;1.78;1.61;1.32;10.58;10.57;10.52;10.29;8.75;0.60
66834;SPS30;53743;51.100;5.874;2023-09-19T03:03:46;1.73;1.65;1.48;1.21;9.71;9.70;9.66;9.44;8.02;0.60
66834;SPS30;53743;51.100;5.874;2023-09-19T03:04:50;1.89;1.80;1.62;1.33;10.64;10.63;10.58;10.35;8.79;0.60
66834;SPS30;53743;51.100;5.874;2023-09-19T03:05:51;1.79;1.70;1.53;1.25;9.99;9.98;9.93;9.70;8.23;0.61
66834;SPS30;53743;51.100;5.874;2023-09-19T03:06:53;2.25;2.14;1.92;1.56;12.49;12.48;12.42;12.13;10.27;0.61
66834;SPS30;53743;51.100;5.874;2023-09-19T03:07:59;1.56;1.48;1.33;1.08;8.65;8.64;8.60;8.40;7.11;0.61
66834;SPS30;53743;51.100;5.874;2023-09-19T03:09:01;1.99;1.89;1.70;1.39;11.12;11.11;11.06;10.81;9.17;0.61
66834;SPS30;53743;51.100;5.874;2023-09-19T03:10:06;2.06;1.95;1.74;1.41;11.25;11.24;11.19;10.91;9.22;0.62
66834;SPS30;53743;51.100;5.874;2023-09-19T03:11:09;1.72;1.63;1.46;1.19;9.52;9.51;9.47;9.25;7.84;0.62
66834;SPS30;53743;51.100;5.874;2023-09-19T03:12:14;1.95;1.85;1.66;1.36;10.84;10.83;10.78;10.53;8.93;0.62
66834;SPS30;53743;51.100;5.874;2023-09-19T03:13:16;2.37;2.24;2.00;1.61;12.92;12.91;12.85;12.53;10.59;0.62
66834;SPS30;53743;51.100;5.874;2023-09-19T03:14:18;2.28;2.16;1.92;1.54;12.33;12.32;12.26;11.94;10.07;0.62
66834;SPS30;53743;51.100;5.874;2023-09-19T03:15:21;2.30;2.18;1.93;1.54;12.29;12.28;12.22;11.89;10.00;0.63
66834;SPS30;53743;51.100;5.874;2023-09-19T03:16:25;2.07;1.95;1.74;1.39;11.16;11.15;11.09;10.80;9.11;0.61
66834;SPS30;53743;51.100;5.874;2023-09-19T03:17:29;1.89;1.79;1.59;1.29;10.28;10.27;10.22;9.97;8.42;0.61
66834;SPS30;53743;51.100;5.874;2023-09-19T03:18:31;1.80;1.70;1.50;1.20;9.59;9.58;9.53;9.27;7.80;0.63
66834;SPS30;53743;51.100;5.874;2023-09-19T03:19:32;1.67;1.58;1.39;1.11;8.90;8.89;8.84;8.60;7.24;0.63
66834;SPS30;53743;51.100;5.874;2023-09-19T03:20:36;1.95;1.84;1.62;1.29;10.29;10.28;10.23;9.94;8.35;0.64
66834;SPS30;53743;51.100;5.874;2023-09-19T03:21:37;1.78;1.68;1.48;1.18;9.46;9.45;9.40;9.15;7.69;0.63
66834;SPS30;53743;51.100;5.874;2023-09-19T03:22:39;1.94;1.83;1.64;1.32;10.56;10.55;10.51;10.24;8.66;0.62
66834;SPS30;53743;51.100;5.874;2023-09-19T03:23:41;2.10;2.00;1.79;1.45;11.60;11.59;11.53;11.26;9.53;0.62
66834;SPS30;53743;51.100;5.874;2023-09-19T03:24:45;1.74;1.65;1.47;1.19;9.50;9.49;9.45;9.21;7.78;0.64
66834;SPS30;53743;51.100;5.874;2023-09-19T03:25:47;1.98;1.86;1.63;1.28;10.26;10.25;10.19;9.89;8.28;0.66
66834;SPS30;53743;51.100;5.874;2023-09-19T03:26:49;1.86;1.75;1.54;1.22;9.75;9.73;9.68;9.41;7.89;0.64
66834;SPS30;53743;51.100;5.874;2023-09-19T03:27:51;2.04;1.93;1.71;1.36;10.85;10.84;10.79;10.49;8.82;0.63
66834;SPS30;53743;51.100;5.874;2023-09-19T03:28:53;2.83;2.68;2.38;1.90;15.23;15.21;15.14;14.74;12.42;0.64
66834;SPS30;53743;51.100;5.874;2023-09-19T03:29:55;1.64;1.55;1.37;1.09;8.72;8.72;8.67;8.43;7.09;0.65
66834;SPS30;53743;51.100;5.874;2023-09-19T03:30:57;1.92;1.81;1.60;1.27;10.18;10.17;10.12;9.84;8.28;0.65
66834;SPS30;53743;51.100;5.874;2023-09-19T03:32:01;2.04;1.93;1.70;1.36;10.85;10.83;10.78;10.48;8.82;0.64
66834;SPS30;53743;51.100;5.874;2023-09-19T03:33:04;1.89;1.78;1.57;1.25;10.03;10.01;9.96;9.69;8.15;0.64
66834;SPS30;53743;51.100;5.874;2023-09-19T03:34:06;1.77;1.67;1.47;1.17;9.33;9.32;9.27;9.01;7.57;0.65
66834;SPS30;53743;51.100;5.874;2023-09-19T03:35:08;1.98;1.85;1.60;1.23;9.86;9.85;9.79;9.47;7.86;0.68
66834;SPS30;53743;51.100;5.874;2023-09-19T03:36:10;2.54;2.36;2.01;1.51;12.05;12.04;11.95;11.50;9.44;0.69
66834;SPS30;53743;51.100;5.874;2023-09-19T03:37:14;2.43;2.26;1.93;1.45;11.63;11.61;11.53;11.10;9.14;0.68
66834;SPS30;53743;51.100;5.874;2023-09-19T03:38:16;2.76;2.57;2.19;1.64;13.14;13.12;13.03;12.54;10.31;0.69
66834;SPS30;53743;51.100;5.874;2023-09-19T03:39:18;2.66;2.46;2.07;1.52;12.16;12.14;12.05;11.55;9.41;0.71
66834;SPS30;53743;51.100;5.874;2023-09-19T03:40:20;2.53;2.33;1.93;1.37;10.97;10.95;10.86;10.34;8.31;0.72
66834;SPS30;53743;51.100;5.874;2023-09-19T03:41:23;2.24;2.06;1.71;1.22;9.78;9.76;9.68;9.23;7.44;0.70
66834;SPS30;53743;51.100;5.874;2023-09-19T03:42:25;2.56;2.36;1.98;1.43;11.45;11.43;11.34;10.84;8.78;0.69
66834;SPS30;53743;51.100;5.874;2023-09-19T03:43:28;2.65;2.45;2.07;1.52;12.16;12.14;12.05;11.55;9.42;0.68
66834;SPS30;53743;51.100;5.874;2023-09-19T03:44:29;2.05;1.90;1.61;1.19;9.57;9.55;9.48;9.11;7.45;0.68
66834;SPS30;53743;51.100;5.874;2023-09-19T03:45:31;2.29;2.13;1.81;1.35;10.85;10.84;10.76;10.35;8.50;0.67
66834;SPS30;53743;51.100;5.874;2023-09-19T03:46:34;2.70;2.51;2.15;1.62;12.97;12.95;12.87;12.39;10.21;0.68
66834;SPS30;53743;51.100;5.874;2023-09-19T03:47:37;2.10;1.96;1.68;1.27;10.15;10.14;10.07;9.71;8.01;0.68
66834;SPS30;53743;51.100;5.874;2023-09-19T03:48:39;1.81;1.69;1.44;1.08;8.68;8.67;8.61;8.29;6.83;0.68
66834;SPS30;53743;51.100;5.874;2023-09-19T03:49:41;2.06;1.92;1.64;1.24;9.90;9.89;9.82;9.46;7.80;0.68
66834;SPS30;53743;51.100;5.874;2023-09-19T03:50:42;2.89;2.69;2.30;1.72;13.80;13.78;13.69;13.18;10.84;0.68
66834;SPS30;53743;51.100;5.874;2023-09-19T03:51:46;2.30;2.14;1.82;1.36;10.87;10.85;10.78;10.36;8.51;0.69
66834;SPS30;53743;51.100;5.874;2023-09-19T03:52:47;2.55;2.36;2.01;1.49;11.96;11.94;11.86;11.40;9.34;0.68
66834;SPS30;53743;51.100;5.874;2023-09-19T03:53:49;2.24;2.08;1.77;1.32;10.54;10.52;10.45;10.04;8.23;0.69
66834;SPS30;53743;51.100;5.874;2023-09-19T03:54:50;1.96;1.83;1.56;1.18;9.45;9.43;9.37;9.03;7.45;0.67
66834;SPS30;53743;51.100;5.874;2023-09-19T03:55:52;2.16;2.02;1.75;1.34;10.70;10.69;10.62;10.26;8.51;0.66
66834;SPS30;53743;51.100;5.874;2023-09-19T03:56:53;1.69;1.58;1.37;1.05;8.39;8.38;8.33;8.05;6.68;0.66
66834;SPS30;53743;51.100;5.874;2023-09-19T03:57:55;2.19;2.05;1.76;1.35;10.77;10.76;10.69;10.32;8.54;0.67
66834;SPS30;53743;51.100;5.874;2023-09-19T03:58:57;2.28;2.12;1.82;1.38;11.06;11.04;10.97;10.58;8.73;0.68
66834;SPS30;53743;51.100;5.874;2023-09-19T03:59:59;1.90;1.78;1.53;1.16;9.30;9.29;9.23;8.91;7.36;0.68
66834;SPS30;53743;51.100;5.874;2023-09-19T04:01:00;1.55;1.45;1.25;0.96;7.66;7.65;7.61;7.35;6.09;0.67
66834;SPS30;53743;51.100;5.874;2023-09-19T04:02:02;1.90;1.78;1.54;1.18;9.41;9.40;9.34;9.02;7.48;0.66
66834;SPS30;53743;51.100;5.874;2023-09-19T04:03:05;2.29;2.14;1.85;1.43;11.43;11.41;11.35;10.97;9.11;0.65
66834;SPS30;53743;51.100;5.874;2023-09-19T04:04:06;2.19;2.05;1.78;1.38;11.02;11.00;10.94;10.58;8.80;0.65
66834;SPS30;53743;51.100;5.874;2023-09-19T04:05:10;2.24;2.10;1.81;1.39;11.13;11.12;11.05;10.68;8.86;0.66
66834;SPS30;53743;51.100;5.874;2023-09-19T04:06:11;1.90;1.78;1.54;1.19;9.55;9.53;9.48;9.17;7.63;0.65
66834;SPS30;53743;51.100;5.874;2023-09-19T04:07:14;1.73;1.63;1.43;1.12;8.97;8.96;8.91;8.65;7.24;0.64